createdAt,value
2023-04-02T00:00:07.007Z,3.90
2023-04-02T00:02:48.508Z,3.80
2023-04-02T00:05:51.471Z,3.80
2023-04-02T00:08:26.335Z,3.80
2023-04-02T00:10:56.749Z,3.70
2023-04-02T00:13:33.763Z,3.70
2023-04-02T00:16:06.761Z,3.70
2023-04-02T00:18:38.556Z,3.60
2023-04-02T00:21:12.455Z,3.60
2023-04-02T00:23:42.317Z,3.60
2023-04-02T00:26:23.139Z,3.60
2023-04-02T00:28:52.027Z,3.50
2023-04-02T00:31:22.371Z,3.50
2023-04-02T00:33:51.466Z,3.50
2023-04-02T00:36:22.068Z,3.40
2023-04-02T00:38:50.636Z,3.40
2023-04-02T00:41:25.010Z,3.40
2023-04-02T00:43:54.747Z,3.40
2023-04-02T00:46:30.193Z,3.30
2023-04-02T00:49:02.505Z,3.30
2023-04-02T00:51:35.923Z,3.30
2023-04-02T00:54:07.717Z,3.30
2023-04-02T00:56:42.572Z,3.30
2023-04-02T00:59:21.066Z,3.30
2023-04-02T01:01:54.487Z,3.30
2023-04-02T01:04:34.557Z,3.20
2023-04-02T01:07:07.267Z,3.20
2023-04-02T01:10:00.451Z,3.20
2023-04-02T01:12:42.135Z,3.20
2023-04-02T01:15:18.673Z,3.10
2023-04-02T01:18:02.256Z,3.10
2023-04-02T01:20:59.393Z,3.10
2023-04-02T01:23:34.626Z,3.10
2023-04-02T01:26:10.648Z,3.10
2023-04-02T01:28:56.591Z,3.00
2023-04-02T01:31:27.410Z,3.00
2023-04-02T01:33:56.319Z,3.00
2023-04-02T01:36:32.029Z,3.00
2023-04-02T01:39:07.363Z,3.00
2023-04-02T01:41:40.402Z,3.00
2023-04-02T01:44:13.357Z,3.00
2023-04-02T01:46:43.210Z,2.90
2023-04-02T01:49:14.882Z,2.90
2023-04-02T01:51:46.555Z,2.90
2023-04-02T01:54:18.437Z,2.90
2023-04-02T01:56:48.262Z,2.90
2023-04-02T01:59:22.135Z,2.90
2023-04-02T02:02:01.680Z,2.90
2023-04-02T02:04:32.318Z,2.90
2023-04-02T02:07:02.202Z,2.90
2023-04-02T02:09:35.373Z,2.90
2023-04-02T02:12:05.259Z,2.90
2023-04-02T02:14:34.882Z,2.90
2023-04-02T02:17:04.390Z,2.90
2023-04-02T02:19:37.790Z,2.90
2023-04-02T02:22:11.954Z,2.90
2023-04-02T02:24:41.194Z,2.90
2023-04-02T02:27:44.160Z,2.90
2023-04-02T02:30:18.662Z,2.80
2023-04-02T02:32:55.256Z,4.20
2023-04-02T02:35:28.145Z,2.80
2023-04-02T02:38:04.052Z,2.80
2023-04-02T02:40:39.955Z,2.90
2023-04-02T02:43:13.292Z,2.80
2023-04-02T02:45:44.637Z,2.80
2023-04-02T02:48:16.410Z,2.80
2023-04-02T02:50:48.543Z,2.80
2023-04-02T02:53:20.766Z,2.80
2023-04-02T02:55:52.540Z,2.80
2023-04-02T02:58:27.673Z,2.80
2023-04-02T03:01:05.419Z,2.80
2023-04-02T03:03:36.021Z,2.70
2023-04-02T03:06:09.487Z,2.70
2023-04-02T03:08:44.792Z,2.70
2023-04-02T03:11:24.183Z,2.70
2023-04-02T03:14:00.202Z,2.70
2023-04-02T03:16:35.506Z,2.70
2023-04-02T03:19:10.086Z,2.60
2023-04-02T03:21:48.685Z,2.60
2023-04-02T03:24:30.393Z,2.60
2023-04-02T03:27:04.575Z,2.60
2023-04-02T03:29:35.711Z,2.50
2023-04-02T03:32:13.373Z,2.50
2023-04-02T03:34:45.518Z,2.50
2023-04-02T03:37:20.928Z,2.50
2023-04-02T03:39:55.541Z,2.40
2023-04-02T03:42:26.390Z,2.40
2023-04-02T03:45:04.332Z,2.40
2023-04-02T03:47:38.149Z,2.40
2023-04-02T03:50:13.114Z,2.40
2023-04-02T03:52:42.338Z,2.30
2023-04-02T03:55:18.536Z,2.40
2023-04-02T03:57:55.778Z,2.30
2023-04-02T04:00:35.339Z,2.30
2023-04-02T04:03:12.642Z,2.30
2023-04-02T04:05:49.477Z,2.30
2023-04-02T04:08:21.631Z,2.30
2023-04-02T04:10:53.161Z,2.20
2023-04-02T04:13:26.677Z,2.20
2023-04-02T04:16:01.265Z,2.20
2023-04-02T04:18:38.036Z,2.20
2023-04-02T04:21:22.826Z,2.20
2023-04-02T04:23:52.556Z,2.20
2023-04-02T04:26:31.102Z,2.10
2023-04-02T04:29:12.612Z,2.10
2023-04-02T04:31:47.165Z,2.10
2023-04-02T04:34:21.817Z,2.10
2023-04-02T04:36:57.416Z,2.10
2023-04-02T04:39:37.894Z,2.00
2023-04-02T04:42:08.639Z,2.10
2023-04-02T04:44:43.045Z,2.10
2023-04-02T04:47:18.670Z,2.00
2023-04-02T04:49:54.188Z,2.00
2023-04-02T04:52:27.058Z,2.00
2023-04-02T04:54:55.928Z,2.00
2023-04-02T04:57:34.950Z,2.00
2023-04-02T05:00:15.937Z,2.00
2023-04-02T05:02:48.897Z,2.00
2023-04-02T05:05:22.281Z,2.00
2023-04-02T05:07:59.072Z,2.00
2023-04-02T05:10:38.180Z,2.00
2023-04-02T05:13:12.819Z,2.00
2023-04-02T05:15:46.205Z,2.00
2023-04-02T05:18:23.819Z,2.00
2023-04-02T05:21:00.968Z,2.00
2023-04-02T05:23:35.449Z,2.00
2023-04-02T05:26:07.985Z,2.00
2023-04-02T05:28:41.979Z,2.00
2023-04-02T05:31:17.547Z,2.00
2023-04-02T05:33:49.028Z,2.00
2023-04-02T05:36:23.422Z,2.00
2023-04-02T05:38:56.844Z,2.70
2023-04-02T05:41:48.362Z,2.10
2023-04-02T05:44:37.236Z,2.10
2023-04-02T05:47:11.612Z,2.20
2023-04-02T05:49:45.729Z,2.20
2023-04-02T05:52:18.593Z,2.20
2023-04-02T05:54:53.174Z,2.20
2023-04-02T05:57:39.543Z,2.30
2023-04-02T06:00:18.807Z,2.30
2023-04-02T06:03:00.168Z,2.40
2023-04-02T06:05:36.168Z,2.40
2023-04-02T06:08:09.994Z,2.40
2023-04-02T06:10:47.613Z,2.50
2023-04-02T06:13:19.880Z,2.50
2023-04-02T06:15:48.501Z,2.60
2023-04-02T06:18:27.033Z,2.60
2023-04-02T06:20:56.286Z,2.60
2023-04-02T06:23:32.582Z,2.60
2023-04-02T06:26:08.581Z,2.70
2023-04-02T06:28:45.388Z,2.70
2023-04-02T06:31:26.974Z,2.80
2023-04-02T06:33:56.647Z,2.80
2023-04-02T06:36:29.252Z,2.90
2023-04-02T06:39:10.037Z,2.90
2023-04-02T06:41:39.033Z,2.90
2023-04-02T06:44:36.847Z,3.00
2023-04-02T06:47:31.994Z,3.00
2023-04-02T06:50:07.199Z,3.10
2023-04-02T06:52:40.573Z,3.10
2023-04-02T06:55:29.949Z,3.10
2023-04-02T06:57:58.652Z,3.20
2023-04-02T07:00:34.076Z,3.20
2023-04-02T07:03:04.468Z,3.20
2023-04-02T07:05:33.125Z,3.30
2023-04-02T07:08:01.586Z,3.40
2023-04-02T07:10:31.333Z,3.40
2023-04-02T07:13:02.321Z,3.50
2023-04-02T07:15:30.814Z,3.50
2023-04-02T07:18:00.319Z,3.60
2023-04-02T07:20:31.752Z,3.70
2023-04-02T07:23:03.915Z,3.70
2023-04-02T07:25:33.708Z,3.70
2023-04-02T07:28:02.522Z,3.70
2023-04-02T07:30:30.788Z,3.80
2023-04-02T07:32:59.050Z,3.80
2023-04-02T07:39:38.387Z,3.90
2023-04-02T07:42:31.585Z,4.00
2023-04-02T07:44:59.902Z,4.00
2023-04-02T07:47:28.084Z,4.10
2023-04-02T07:49:56.262Z,4.20
2023-04-02T07:52:24.476Z,4.20
2023-04-02T07:54:52.605Z,4.30
2023-04-02T07:57:22.168Z,4.40
2023-04-02T07:59:51.062Z,4.40
2023-04-02T08:02:23.835Z,4.60
2023-04-02T08:04:52.490Z,4.70
2023-04-02T08:07:20.851Z,4.90
2023-04-02T08:09:49.070Z,5.00
2023-04-02T08:12:17.304Z,5.20
2023-04-02T08:14:46.914Z,5.40
2023-04-02T08:17:15.156Z,5.50
2023-04-02T08:19:54.162Z,5.70
2023-04-02T08:22:23.003Z,5.90
2023-04-02T08:24:51.155Z,5.90
2023-04-02T08:27:19.536Z,6.00
2023-04-02T08:29:48.983Z,6.10
2023-04-02T08:32:17.589Z,6.20
2023-04-02T08:34:46.334Z,6.30
2023-04-02T08:37:14.917Z,6.40
2023-04-02T08:39:43.130Z,6.50
2023-04-02T08:42:23.424Z,6.60
2023-04-02T08:45:21.212Z,6.70
2023-04-02T08:47:56.144Z,6.90
2023-04-02T08:50:32.268Z,6.90
2023-04-02T08:53:05.888Z,6.90
2023-04-02T08:55:42.819Z,7.00
2023-04-02T08:58:21.964Z,7.10
2023-04-02T09:00:55.516Z,7.20
2023-04-02T09:03:31.557Z,7.30
2023-04-02T09:06:04.036Z,7.40
2023-04-02T09:08:33.680Z,7.50
2023-04-02T09:11:07.585Z,7.60
2023-04-02T09:13:38.914Z,7.80
2023-04-02T09:16:12.079Z,7.90
2023-04-02T09:18:41.590Z,8.00
2023-04-02T09:21:28.229Z,8.00
2023-04-02T09:23:57.909Z,8.10
2023-04-02T09:26:28.648Z,8.10
2023-04-02T09:29:03.519Z,8.20
2023-04-02T09:31:39.139Z,8.30
2023-04-02T09:34:29.472Z,8.30
2023-04-02T09:36:58.073Z,8.40
2023-04-02T09:39:27.450Z,8.50
2023-04-02T09:42:05.396Z,8.50
2023-04-02T09:44:35.054Z,8.50
2023-04-02T09:47:24.870Z,8.50
2023-04-02T09:49:53.545Z,8.50
2023-04-02T09:52:27.986Z,8.50
2023-04-02T09:55:19.976Z,8.50
2023-04-02T09:57:49.499Z,8.50
2023-04-02T10:00:31.600Z,8.60
2023-04-02T10:03:05.252Z,8.60
2023-04-02T10:08:19.067Z,8.50
2023-04-02T10:10:51.082Z,8.50
2023-04-02T10:13:25.587Z,8.50
2023-04-02T10:15:58.432Z,8.50
2023-04-02T10:18:38.106Z,8.50
2023-04-02T10:21:07.470Z,8.40
2023-04-02T10:23:36.388Z,8.50
2023-04-02T10:26:29.893Z,8.50
2023-04-02T10:29:12.647Z,8.60
2023-04-02T10:31:53.096Z,8.50
2023-04-02T10:34:26.049Z,8.50
2023-04-02T10:36:57.849Z,8.50
2023-04-02T10:45:43.361Z,8.70
2023-04-02T10:48:21.359Z,8.70
2023-04-02T10:51:00.421Z,8.80
2023-04-02T10:53:38.568Z,8.80
2023-04-02T10:56:11.127Z,8.90
2023-04-02T10:58:43.771Z,8.80
2023-04-02T11:01:18.757Z,8.90
2023-04-02T11:03:53.089Z,9.00
2023-04-02T11:06:26.651Z,9.00
2023-04-02T11:08:59.791Z,9.00
2023-04-02T11:11:32.341Z,9.00
2023-04-02T11:14:02.997Z,9.00
2023-04-02T11:16:31.424Z,9.00
2023-04-02T11:19:25.011Z,9.10
2023-04-02T11:22:00.313Z,9.10
2023-04-02T11:24:44.192Z,9.10
2023-04-02T11:27:25.104Z,9.20
2023-04-02T11:29:59.285Z,9.20
2023-04-02T11:32:32.149Z,9.20
2023-04-02T11:35:20.135Z,9.30
2023-04-02T11:37:50.064Z,9.40
2023-04-02T11:40:49.982Z,9.50
2023-04-02T11:43:50.462Z,9.50
2023-04-02T11:46:41.833Z,9.60
2023-04-02T11:49:39.799Z,9.60
2023-04-02T11:52:26.953Z,9.60
2023-04-02T11:55:22.310Z,9.50
2023-04-02T11:58:20.583Z,9.50
2023-04-02T12:01:22.370Z,9.50
2023-04-02T12:04:25.980Z,9.50
2023-04-02T12:07:12.778Z,9.50
2023-04-02T12:09:47.776Z,9.50
2023-04-02T12:12:27.778Z,9.50
2023-04-02T12:14:57.660Z,9.60
2023-04-02T12:17:30.789Z,9.60
2023-04-02T12:20:03.153Z,9.60
2023-04-02T12:22:34.858Z,9.60
2023-04-02T12:25:06.544Z,9.70
2023-04-02T12:27:38.377Z,9.70
2023-04-02T12:30:16.147Z,9.80
2023-04-02T12:32:44.580Z,9.80
2023-04-02T12:35:29.497Z,9.80
2023-04-02T12:37:58.483Z,9.80
2023-04-02T12:40:28.118Z,9.80
2023-04-02T12:42:58.257Z,9.80
2023-04-02T12:45:29.700Z,9.80
2023-04-02T12:47:59.912Z,9.80
2023-04-02T12:50:28.410Z,9.80
2023-04-02T12:52:59.004Z,9.90
2023-04-02T12:55:28.400Z,9.90
2023-04-02T12:57:59.269Z,10.00
2023-04-02T13:00:33.801Z,10.00
2023-04-02T13:03:18.541Z,10.10
2023-04-02T13:05:50.652Z,10.10
2023-04-02T13:08:21.604Z,10.20
2023-04-02T13:10:55.669Z,10.20
2023-04-02T13:13:30.300Z,10.30
2023-04-02T13:16:27.935Z,10.30
2023-04-02T13:19:13.502Z,10.30
2023-04-02T13:21:41.652Z,10.30
2023-04-02T13:24:19.080Z,10.30
2023-04-02T13:26:49.702Z,10.40
2023-04-02T13:29:26.477Z,10.40
2023-04-02T13:31:56.978Z,10.40
2023-04-02T13:34:25.569Z,10.40
2023-04-02T13:36:54.077Z,10.40
2023-04-02T13:39:22.755Z,10.40
2023-04-02T13:41:53.562Z,10.40
2023-04-02T13:44:25.519Z,10.50
2023-04-02T13:46:55.773Z,10.50
2023-04-02T13:49:24.474Z,10.50
2023-04-02T13:51:54.803Z,10.50
2023-04-02T13:54:27.377Z,10.60
2023-04-02T13:56:57.384Z,10.60
2023-04-02T13:59:27.573Z,10.60
2023-04-02T14:01:59.719Z,10.60
2023-04-02T14:04:32.406Z,10.60
2023-04-02T14:07:23.315Z,10.60
2023-04-02T14:10:06.380Z,10.60
2023-04-02T14:12:52.944Z,10.60
2023-04-02T14:15:35.076Z,10.70
2023-04-02T14:18:26.679Z,10.70
2023-04-02T14:21:07.520Z,10.80
2023-04-02T14:23:49.437Z,10.80
2023-04-02T14:26:24.702Z,10.80
2023-04-02T14:28:59.551Z,10.80
2023-04-02T14:31:35.659Z,10.80
2023-04-02T14:34:11.756Z,10.80
2023-04-02T14:36:49.897Z,10.70
2023-04-02T14:39:27.387Z,10.80
2023-04-02T14:42:00.940Z,10.80
2023-04-02T14:44:33.183Z,10.80
2023-04-02T14:47:15.458Z,10.80
2023-04-02T14:49:46.922Z,10.80
2023-04-02T14:52:18.031Z,10.80
2023-04-02T14:54:52.507Z,10.90
2023-04-02T14:57:24.331Z,10.90
2023-04-02T14:59:59.780Z,10.90
2023-04-02T15:02:41.167Z,10.90
2023-04-02T15:05:17.765Z,10.90
2023-04-02T15:07:52.254Z,10.90
2023-04-02T15:10:27.269Z,10.90
2023-04-02T15:12:57.784Z,10.80
2023-04-02T15:15:41.052Z,10.80
2023-04-02T15:18:19.183Z,10.50
2023-04-02T15:21:01.072Z,10.70
2023-04-02T15:23:43.726Z,10.70
2023-04-02T15:26:21.723Z,10.70
2023-04-02T15:28:56.675Z,10.70
2023-04-02T15:31:28.719Z,10.70
2023-04-02T15:34:10.641Z,10.70
2023-04-02T15:36:49.088Z,10.60
2023-04-02T15:39:43.028Z,10.60
2023-04-02T15:42:19.085Z,10.60
2023-04-02T15:45:10.771Z,10.60
2023-04-02T15:47:49.754Z,10.60
2023-04-02T15:50:38.736Z,10.50
2023-04-02T15:53:16.590Z,10.40
2023-04-02T15:55:49.251Z,10.40
2023-04-02T15:58:25.792Z,10.30
2023-04-02T16:01:06.170Z,10.30
2023-04-02T16:04:02.433Z,10.30
2023-04-02T16:06:40.446Z,10.20
2023-04-02T16:09:19.034Z,10.20
2023-04-02T16:11:47.317Z,10.10
2023-04-02T16:14:26.574Z,10.10
2023-04-02T16:17:03.854Z,10.10
2023-04-02T16:19:40.730Z,10.00
2023-04-02T16:22:18.647Z,10.00
2023-04-02T16:24:50.196Z,10.00
2023-04-02T16:27:28.432Z,9.90
2023-04-02T16:30:04.860Z,9.90
2023-04-02T16:33:11.879Z,9.90
2023-04-02T16:36:03.380Z,9.90
2023-04-02T16:38:51.795Z,9.90
2023-04-02T16:41:27.293Z,9.90
2023-04-02T16:44:06.004Z,9.90
2023-04-02T16:46:41.137Z,10.00
2023-04-02T16:49:21.900Z,10.00
2023-04-02T16:51:59.710Z,10.10
2023-04-02T16:54:35.687Z,10.20
2023-04-02T16:57:21.480Z,10.30
2023-04-02T17:00:02.747Z,10.50
2023-04-02T17:02:42.310Z,10.60
2023-04-02T17:05:21.741Z,10.80
2023-04-02T17:08:05.157Z,10.70
2023-04-02T17:10:49.875Z,10.60
2023-04-02T17:13:26.732Z,10.40
2023-04-02T17:16:04.674Z,10.20
2023-04-02T17:18:34.693Z,10.10
2023-04-02T17:21:06.719Z,9.90
2023-04-02T17:23:55.361Z,9.80
2023-04-02T17:26:29.138Z,9.60
2023-04-02T17:29:01.488Z,9.50
2023-04-02T17:31:35.381Z,9.40
2023-04-02T17:34:13.360Z,9.30
2023-04-02T17:36:49.213Z,9.20
2023-04-02T17:39:25.516Z,9.10
2023-04-02T17:42:02.318Z,9.00
2023-04-02T17:44:45.007Z,8.90
2023-04-02T17:47:39.169Z,8.80
2023-04-02T17:50:38.602Z,8.70
2023-04-02T17:53:19.143Z,8.70
2023-04-02T17:55:57.592Z,8.60
2023-04-02T17:58:50.552Z,8.50
2023-04-02T18:01:26.133Z,8.40
2023-04-02T18:04:05.676Z,8.40
2023-04-02T18:06:40.326Z,8.30
2023-04-02T18:09:27.232Z,8.20
2023-04-02T18:12:05.866Z,8.10
2023-04-02T18:14:59.549Z,8.00
2023-04-02T18:17:36.155Z,8.00
2023-04-02T18:20:17.532Z,7.90
2023-04-02T18:22:54.337Z,7.80
2023-04-02T18:25:37.238Z,7.70
2023-04-02T18:28:24.193Z,7.70
2023-04-02T18:30:59.582Z,7.60
2023-04-02T18:33:41.737Z,7.50
2023-04-02T18:36:20.139Z,7.50
2023-04-02T18:38:56.086Z,7.40
2023-04-02T18:41:41.295Z,7.30
2023-04-02T18:44:24.322Z,7.30
2023-04-02T18:46:57.272Z,7.20
2023-04-02T18:49:32.920Z,7.20
2023-04-02T18:52:05.177Z,7.10
2023-04-02T18:54:39.938Z,7.00
2023-04-02T18:57:13.592Z,7.00
2023-04-02T18:59:48.263Z,6.90
2023-04-02T19:02:50.447Z,6.90
2023-04-02T19:05:24.780Z,6.80
2023-04-02T19:07:59.543Z,6.80
2023-04-02T19:10:32.142Z,6.70
2023-04-02T19:13:00.451Z,6.70
2023-04-02T19:15:39.754Z,6.60
2023-04-02T19:18:17.631Z,6.60
2023-04-02T19:20:52.435Z,6.60
2023-04-02T19:23:35.859Z,6.50
2023-04-02T19:26:08.239Z,6.50
2023-04-02T19:28:44.564Z,6.40
2023-04-02T19:31:22.013Z,6.40
2023-04-02T19:33:57.133Z,6.30
2023-04-02T19:36:45.966Z,6.30
2023-04-02T19:39:39.747Z,6.20
2023-04-02T19:42:15.824Z,6.20
2023-04-02T19:44:47.010Z,6.10
2023-04-02T19:47:17.538Z,6.00
2023-04-02T19:49:47.479Z,6.00
2023-04-02T19:52:15.835Z,6.00
2023-04-02T19:54:44.123Z,5.90
2023-04-02T19:57:15.217Z,5.80
2023-04-02T19:59:43.954Z,5.80
2023-04-02T20:02:12.418Z,5.80
2023-04-02T20:04:40.886Z,5.70
2023-04-02T20:07:10.580Z,5.70
2023-04-02T20:09:38.952Z,5.60
2023-04-02T20:12:07.437Z,5.60
2023-04-02T20:14:35.844Z,5.60
2023-04-02T20:17:04.260Z,5.50
2023-04-02T20:19:32.638Z,5.50
2023-04-02T20:22:00.901Z,5.50
2023-04-02T20:24:31.631Z,5.40
2023-04-02T20:26:59.900Z,5.40
2023-04-02T20:29:29.519Z,5.40
2023-04-02T20:31:57.655Z,5.40
2023-04-02T20:34:26.048Z,5.30
2023-04-02T20:36:54.833Z,5.30
2023-04-02T20:39:24.038Z,5.30
2023-04-02T20:41:53.624Z,5.20
2023-04-02T20:44:22.783Z,5.20
2023-04-02T20:46:51.138Z,5.20
2023-04-02T20:49:19.466Z,5.10
2023-04-02T20:51:48.533Z,5.10
2023-04-02T20:54:16.806Z,6.50
2023-04-02T20:56:45.348Z,5.00
2023-04-02T20:59:14.971Z,5.00
2023-04-02T21:01:43.234Z,5.00
2023-04-02T21:04:11.582Z,4.90
2023-04-02T21:06:41.436Z,4.90
2023-04-02T21:09:14.795Z,4.90
2023-04-02T21:11:43.796Z,4.80
2023-04-02T21:14:12.653Z,4.80
2023-04-02T21:16:42.864Z,4.80
2023-04-02T21:19:11.809Z,4.70
2023-04-02T21:21:40.501Z,4.70
2023-04-02T21:24:10.303Z,4.60
2023-04-02T21:26:40.952Z,4.60
2023-04-02T21:29:09.616Z,4.60
2023-04-02T21:31:39.430Z,4.60
2023-04-02T21:34:10.554Z,4.50
2023-04-02T21:36:41.949Z,4.50
2023-04-02T21:39:12.196Z,4.50
2023-04-02T21:41:42.346Z,4.50
2023-04-02T21:44:14.434Z,4.40
2023-04-02T21:46:44.152Z,4.40
2023-04-02T21:49:15.503Z,4.40
2023-04-02T21:51:45.617Z,4.30
2023-04-02T21:54:14.595Z,4.30
2023-04-02T21:56:44.458Z,4.30
2023-04-02T21:59:14.622Z,4.30
2023-04-02T22:01:44.951Z,4.20
2023-04-02T22:04:18.198Z,4.20
2023-04-02T22:06:47.452Z,4.20
2023-04-02T22:09:18.449Z,4.20
2023-04-02T22:11:48.680Z,4.10
2023-04-02T22:14:17.048Z,4.10
2023-04-02T22:16:45.746Z,4.10
2023-04-02T22:19:17.126Z,4.10
2023-04-02T22:21:46.417Z,4.00
2023-04-02T22:24:19.074Z,4.00
2023-04-02T22:26:47.901Z,4.00
2023-04-02T22:29:16.966Z,4.00
2023-04-02T22:31:45.618Z,3.90
2023-04-02T22:34:15.592Z,3.90
2023-04-02T22:36:43.736Z,3.90
2023-04-02T22:39:12.590Z,3.90
2023-04-02T22:41:41.207Z,3.80
2023-04-02T22:44:11.535Z,3.90
2023-04-02T22:46:39.917Z,3.80
2023-04-02T22:49:08.410Z,3.80
2023-04-02T22:51:37.996Z,3.80
2023-04-02T22:54:06.932Z,3.70
2023-04-02T22:56:37.277Z,3.70
2023-04-02T22:59:05.776Z,3.60
2023-04-02T23:01:36.491Z,3.60
2023-04-02T23:04:05.527Z,3.60
2023-04-02T23:06:34.103Z,3.60
2023-04-02T23:09:04.129Z,3.50
2023-04-02T23:11:32.628Z,3.50
2023-04-02T23:14:00.993Z,3.50
2023-04-02T23:16:30.459Z,3.50
2023-04-02T23:18:58.989Z,3.40
2023-04-02T23:21:28.002Z,3.80
2023-04-02T23:23:59.554Z,3.40
2023-04-02T23:26:31.831Z,3.40
2023-04-02T23:29:01.913Z,3.30
2023-04-02T23:31:30.651Z,3.30
2023-04-02T23:33:59.419Z,3.30
2023-04-02T23:36:32.484Z,3.30
2023-04-02T23:39:04.203Z,3.30
2023-04-02T23:41:33.772Z,3.20
2023-04-02T23:44:02.318Z,3.20
2023-04-02T23:46:31.574Z,3.20
2023-04-02T23:49:01.026Z,3.20
2023-04-02T23:51:31.263Z,3.10
2023-04-02T23:54:00.042Z,3.10
2023-04-02T23:56:28.547Z,3.10
2023-04-02T23:58:58.306Z,3.10
